sensor_id;sensor_type;location;lat;lon;timestamp;pressure;altitude;pressure_sealevel;temperature;humidity
69570;BME280;56781;42.292;23.146;2023-02-17T00:01:12;96681.59;;;-6.26;100.00
69570;BME280;56781;42.292;23.146;2023-02-17T00:03:40;96652.66;;;-6.47;100.00
69570;BME280;56781;42.292;23.146;2023-02-17T00:06:09;96666.81;;;-6.41;100.00
69570;BME280;56781;42.292;23.146;2023-02-17T00:08:37;96660.78;;;-6.34;100.00
69570;BME280;56781;42.292;23.146;2023-02-17T00:11:04;96686.63;;;-6.08;100.00
69570;BME280;56781;42.292;23.146;2023-02-17T00:13:32;96681.78;;;-5.80;100.00
69570;BME280;56781;42.292;23.146;2023-02-17T00:15:59;96686.06;;;-5.95;100.00
69570;BME280;56781;42.292;23.146;2023-02-17T00:18:32;96670.19;;;-6.33;100.00
69570;BME280;56781;42.292;23.146;2023-02-17T00:20:59;96692.66;;;-6.15;100.00
69570;BME280;56781;42.292;23.146;2023-02-17T00:23:26;96650.97;;;-6.15;100.00
69570;BME280;56781;42.292;23.146;2023-02-17T00:25:53;96683.50;;;-6.03;100.00
69570;BME280;56781;42.292;23.146;2023-02-17T00:28:20;96657.13;;;-6.08;100.00
69570;BME280;56781;42.292;23.146;2023-02-17T00:30:48;96649.72;;;-5.88;100.00
69570;BME280;56781;42.292;23.146;2023-02-17T00:33:15;96654.34;;;-5.67;100.00
69570;BME280;56781;42.292;23.146;2023-02-17T00:35:42;96672.25;;;-5.56;100.00
69570;BME280;56781;42.292;23.146;2023-02-17T00:38:09;96650.50;;;-5.80;100.00
69570;BME280;56781;42.292;23.146;2023-02-17T00:40:36;96665.47;;;-5.82;100.00
69570;BME280;56781;42.292;23.146;2023-02-17T00:43:04;96631.81;;;-5.91;100.00
69570;BME280;56781;42.292;23.146;2023-02-17T00:45:31;96622.19;;;-5.91;100.00
69570;BME280;56781;42.292;23.146;2023-02-17T00:47:58;96644.63;;;-5.82;100.00
69570;BME280;56781;42.292;23.146;2023-02-17T00:50:26;96626.53;;;-6.14;100.00
69570;BME280;56781;42.292;23.146;2023-02-17T00:52:53;96635.66;;;-6.18;100.00
69570;BME280;56781;42.292;23.146;2023-02-17T00:55:20;96614.31;;;-6.14;100.00
69570;BME280;56781;42.292;23.146;2023-02-17T00:57:47;96664.31;;;-6.10;100.00
69570;BME280;56781;42.292;23.146;2023-02-17T01:00:15;96645.81;;;-6.48;100.00
69570;BME280;56781;42.292;23.146;2023-02-17T01:02:42;96625.63;;;-6.46;100.00
69570;BME280;56781;42.292;23.146;2023-02-17T01:05:10;96609.09;;;-6.14;100.00
69570;BME280;56781;42.292;23.146;2023-02-17T01:07:37;96624.97;;;-6.32;100.00
69570;BME280;56781;42.292;23.146;2023-02-17T01:10:04;96644.81;;;-6.31;100.00
69570;BME280;56781;42.292;23.146;2023-02-17T01:12:32;96618.16;;;-6.57;100.00
69570;BME280;56781;42.292;23.146;2023-02-17T01:14:59;96650.66;;;-6.20;100.00
69570;BME280;56781;42.292;23.146;2023-02-17T01:17:27;96649.34;;;-6.33;100.00
69570;BME280;56781;42.292;23.146;2023-02-17T01:19:54;96626.59;;;-6.39;100.00
69570;BME280;56781;42.292;23.146;2023-02-17T01:22:21;96627.44;;;-6.63;100.00
69570;BME280;56781;42.292;23.146;2023-02-17T01:24:49;96652.66;;;-6.72;100.00
69570;BME280;56781;42.292;23.146;2023-02-17T01:27:16;96632.16;;;-7.24;100.00
69570;BME280;56781;42.292;23.146;2023-02-17T01:29:44;96622.72;;;-7.25;100.00
69570;BME280;56781;42.292;23.146;2023-02-17T01:32:12;96616.09;;;-6.86;100.00
69570;BME280;56781;42.292;23.146;2023-02-17T01:34:39;96641.75;;;-6.51;100.00
69570;BME280;56781;42.292;23.146;2023-02-17T01:37:06;96618.97;;;-6.65;100.00
69570;BME280;56781;42.292;23.146;2023-02-17T01:39:34;96632.16;;;-6.50;100.00
69570;BME280;56781;42.292;23.146;2023-02-17T01:42:01;96618.03;;;-6.88;100.00
69570;BME280;56781;42.292;23.146;2023-02-17T01:44:31;96637.88;;;-6.96;100.00
69570;BME280;56781;42.292;23.146;2023-02-17T01:46:59;96615.91;;;-7.09;100.00
69570;BME280;56781;42.292;23.146;2023-02-17T01:49:34;96640.66;;;-6.81;100.00
69570;BME280;56781;42.292;23.146;2023-02-17T01:52:29;96646.16;;;-6.43;100.00
69570;BME280;56781;42.292;23.146;2023-02-17T01:54:58;96633.63;;;-6.64;100.00
69570;BME280;56781;42.292;23.146;2023-02-17T01:57:30;96657.72;;;-6.70;100.00
69570;BME280;56781;42.292;23.146;2023-02-17T01:59:58;96624.03;;;-7.04;100.00
69570;BME280;56781;42.292;23.146;2023-02-17T02:02:26;96624.03;;;-6.96;100.00
69570;BME280;56781;42.292;23.146;2023-02-17T02:04:56;96621.28;;;-6.95;100.00
69570;BME280;56781;42.292;23.146;2023-02-17T02:07:27;96655.28;;;-6.63;100.00
69570;BME280;56781;42.292;23.146;2023-02-17T02:09:58;96632.00;;;-6.49;100.00
69570;BME280;56781;42.292;23.146;2023-02-17T02:12:29;96660.91;;;-6.35;100.00
69570;BME280;56781;42.292;23.146;2023-02-17T02:15:02;96624.69;;;-6.86;100.00
69570;BME280;56781;42.292;23.146;2023-02-17T02:40:51;96608.44;;;-7.21;100.00
69570;BME280;56781;42.292;23.146;2023-02-17T02:43:21;96619.50;;;-7.19;100.00
69570;BME280;56781;42.292;23.146;2023-02-17T02:45:49;96632.00;;;-7.14;100.00
69570;BME280;56781;42.292;23.146;2023-02-17T02:48:16;96634.59;;;-7.14;100.00
69570;BME280;56781;42.292;23.146;2023-02-17T02:51:09;96656.88;;;-6.79;100.00
69570;BME280;56781;42.292;23.146;2023-02-17T02:54:07;96612.66;;;-7.03;100.00
69570;BME280;56781;42.292;23.146;2023-02-17T03:02:17;96642.19;;;-6.31;100.00
69570;BME280;56781;42.292;23.146;2023-02-17T03:04:54;96639.22;;;-6.11;100.00
69570;BME280;56781;42.292;23.146;2023-02-17T03:07:34;96638.75;;;-6.15;100.00
69570;BME280;56781;42.292;23.146;2023-02-17T03:10:04;96613.84;;;-6.26;100.00
69570;BME280;56781;42.292;23.146;2023-02-17T03:12:32;96643.63;;;-6.12;100.00
69570;BME280;56781;42.292;23.146;2023-02-17T03:15:03;96606.38;;;-6.29;100.00
69570;BME280;56781;42.292;23.146;2023-02-17T03:17:31;96648.69;;;-6.10;100.00
69570;BME280;56781;42.292;23.146;2023-02-17T03:20:00;96625.91;;;-6.25;100.00
69570;BME280;56781;42.292;23.146;2023-02-17T03:22:35;96614.88;;;-6.35;100.00
69570;BME280;56781;42.292;23.146;2023-02-17T03:25:07;96629.22;;;-6.47;100.00
69570;BME280;56781;42.292;23.146;2023-02-17T03:27:34;96622.72;;;-6.51;100.00
69570;BME280;56781;42.292;23.146;2023-02-17T03:30:01;96669.88;;;-6.46;100.00
69570;BME280;56781;42.292;23.146;2023-02-17T03:32:29;96661.44;;;-6.40;100.00
69570;BME280;56781;42.292;23.146;2023-02-17T03:34:56;96650.38;;;-6.58;100.00
69570;BME280;56781;42.292;23.146;2023-02-17T03:37:23;96625.63;;;-7.36;100.00
69570;BME280;56781;42.292;23.146;2023-02-17T03:39:50;96628.38;;;-7.54;100.00
69570;BME280;56781;42.292;23.146;2023-02-17T03:42:17;96630.13;;;-7.63;100.00
69570;BME280;56781;42.292;23.146;2023-02-17T03:44:44;96620.34;;;-7.69;100.00
69570;BME280;56781;42.292;23.146;2023-02-17T03:47:11;96641.16;;;-7.69;100.00
69570;BME280;56781;42.292;23.146;2023-02-17T03:49:39;96643.78;;;-7.61;100.00
69570;BME280;56781;42.292;23.146;2023-02-17T03:52:06;96659.13;;;-7.17;100.00
69570;BME280;56781;42.292;23.146;2023-02-17T03:54:33;96643.84;;;-7.36;100.00
69570;BME280;56781;42.292;23.146;2023-02-17T03:57:00;96629.56;;;-7.24;100.00
69570;BME280;56781;42.292;23.146;2023-02-17T03:59:27;96629.09;;;-7.03;100.00
69570;BME280;56781;42.292;23.146;2023-02-17T04:01:54;96670.22;;;-6.65;100.00
69570;BME280;56781;42.292;23.146;2023-02-17T04:04:22;96656.59;;;-6.84;100.00
69570;BME280;56781;42.292;23.146;2023-02-17T04:06:49;96648.28;;;-6.79;100.00
69570;BME280;56781;42.292;23.146;2023-02-17T04:09:16;96649.06;;;-6.62;100.00
69570;BME280;56781;42.292;23.146;2023-02-17T04:11:44;96670.88;;;-6.47;100.00
69570;BME280;56781;42.292;23.146;2023-02-17T04:14:11;96660.31;;;-6.62;100.00
69570;BME280;56781;42.292;23.146;2023-02-17T04:16:38;96638.03;;;-6.73;100.00
69570;BME280;56781;42.292;23.146;2023-02-17T04:19:06;96633.16;;;-6.67;100.00
69570;BME280;56781;42.292;23.146;2023-02-17T04:21:33;96633.75;;;-6.41;100.00
69570;BME280;56781;42.292;23.146;2023-02-17T04:24:01;96641.91;;;-6.60;100.00
69570;BME280;56781;42.292;23.146;2023-02-17T04:26:29;96643.56;;;-6.67;100.00
69570;BME280;56781;42.292;23.146;2023-02-17T04:28:56;96636.91;;;-7.11;100.00
69570;BME280;56781;42.292;23.146;2023-02-17T04:31:23;96640.47;;;-6.96;100.00
69570;BME280;56781;42.292;23.146;2023-02-17T04:33:53;96669.44;;;-6.91;100.00
69570;BME280;56781;42.292;23.146;2023-02-17T04:36:21;96637.72;;;-7.02;100.00
69570;BME280;56781;42.292;23.146;2023-02-17T04:38:48;96634.31;;;-6.95;100.00
69570;BME280;56781;42.292;23.146;2023-02-17T04:41:15;96636.91;;;-6.78;100.00
69570;BME280;56781;42.292;23.146;2023-02-17T04:43:43;96655.75;;;-6.52;100.00
69570;BME280;56781;42.292;23.146;2023-02-17T04:46:10;96667.25;;;-6.30;100.00
69570;BME280;56781;42.292;23.146;2023-02-17T04:48:37;96629.22;;;-6.47;100.00
69570;BME280;56781;42.292;23.146;2023-02-17T04:51:05;96638.34;;;-6.51;100.00
69570;BME280;56781;42.292;23.146;2023-02-17T04:53:32;96663.38;;;-6.34;100.00
69570;BME280;56781;42.292;23.146;2023-02-17T04:55:59;96629.72;;;-6.60;100.00
69570;BME280;56781;42.292;23.146;2023-02-17T04:58:26;96658.00;;;-6.57;100.00
69570;BME280;56781;42.292;23.146;2023-02-17T05:00:53;96632.00;;;-6.73;100.00
69570;BME280;56781;42.292;23.146;2023-02-17T05:03:24;96614.94;;;-6.67;100.00
69570;BME280;56781;42.292;23.146;2023-02-17T05:05:51;96662.56;;;-6.34;100.00
69570;BME280;56781;42.292;23.146;2023-02-17T05:08:18;96643.56;;;-6.84;100.00
69570;BME280;56781;42.292;23.146;2023-02-17T05:10:45;96644.53;;;-6.77;100.00
69570;BME280;56781;42.292;23.146;2023-02-17T05:13:12;96676.75;;;-6.70;100.00
69570;BME280;56781;42.292;23.146;2023-02-17T05:15:42;96671.22;;;-6.91;100.00
69570;BME280;56781;42.292;23.146;2023-02-17T05:18:10;96683.59;;;-6.69;100.00
69570;BME280;56781;42.292;23.146;2023-02-17T05:20:37;96633.78;;;-6.74;100.00
69570;BME280;56781;42.292;23.146;2023-02-17T05:23:04;96636.56;;;-6.67;100.00
69570;BME280;56781;42.292;23.146;2023-02-17T05:25:31;96654.44;;;-6.48;100.00
69570;BME280;56781;42.292;23.146;2023-02-17T05:27:58;96665.31;;;-6.28;100.00
69570;BME280;56781;42.292;23.146;2023-02-17T05:30:27;96600.22;;;-6.44;100.00
69570;BME280;56781;42.292;23.146;2023-02-17T05:32:54;96665.09;;;-6.02;100.00
69570;BME280;56781;42.292;23.146;2023-02-17T05:35:22;96631.56;;;-6.13;100.00
69570;BME280;56781;42.292;23.146;2023-02-17T05:37:49;96659.38;;;-5.97;100.00
69570;BME280;56781;42.292;23.146;2023-02-17T05:40:16;96653.34;;;-5.97;100.00
69570;BME280;56781;42.292;23.146;2023-02-17T05:42:43;96673.81;;;-5.86;100.00
69570;BME280;56781;42.292;23.146;2023-02-17T05:45:10;96623.22;;;-6.00;100.00
69570;BME280;56781;42.292;23.146;2023-02-17T05:47:38;96656.50;;;-6.10;100.00
69570;BME280;56781;42.292;23.146;2023-02-17T05:50:05;96650.00;;;-6.31;100.00
69570;BME280;56781;42.292;23.146;2023-02-17T05:52:33;96654.75;;;-6.26;100.00
69570;BME280;56781;42.292;23.146;2023-02-17T05:55:00;96678.19;;;-5.87;100.00
69570;BME280;56781;42.292;23.146;2023-02-17T05:57:29;96687.31;;;-5.74;100.00
69570;BME280;56781;42.292;23.146;2023-02-17T05:59:56;96683.47;;;-5.95;100.00
69570;BME280;56781;42.292;23.146;2023-02-17T06:02:24;96664.09;;;-5.61;100.00
69570;BME280;56781;42.292;23.146;2023-02-17T06:04:51;96671.78;;;-5.68;100.00
69570;BME280;56781;42.292;23.146;2023-02-17T06:07:18;96671.22;;;-5.47;100.00
69570;BME280;56781;42.292;23.146;2023-02-17T06:09:45;96692.25;;;-5.17;99.99
69570;BME280;56781;42.292;23.146;2023-02-17T06:12:12;96668.56;;;-5.07;99.42
69570;BME280;56781;42.292;23.146;2023-02-17T06:14:40;96669.41;;;-5.15;99.27
69570;BME280;56781;42.292;23.146;2023-02-17T06:17:07;96677.84;;;-4.82;99.06
69570;BME280;56781;42.292;23.146;2023-02-17T06:19:34;96712.81;;;-4.45;98.18
69570;BME280;56781;42.292;23.146;2023-02-17T06:22:01;96673.50;;;-4.52;97.95
69570;BME280;56781;42.292;23.146;2023-02-17T06:24:28;96684.38;;;-4.63;97.82
69570;BME280;56781;42.292;23.146;2023-02-17T06:26:56;96692.22;;;-4.25;97.92
69570;BME280;56781;42.292;23.146;2023-02-17T06:29:25;96680.91;;;-4.55;99.37
69570;BME280;56781;42.292;23.146;2023-02-17T06:31:53;96709.66;;;-4.03;98.10
69570;BME280;56781;42.292;23.146;2023-02-17T06:34:21;96682.53;;;-4.02;97.45
69570;BME280;56781;42.292;23.146;2023-02-17T06:36:48;96688.50;;;-3.12;93.72
69570;BME280;56781;42.292;23.146;2023-02-17T06:39:15;96689.66;;;-2.78;92.04
69570;BME280;56781;42.292;23.146;2023-02-17T06:41:42;96720.97;;;-1.99;90.25
69570;BME280;56781;42.292;23.146;2023-02-17T06:44:10;96689.84;;;-2.09;88.55
69570;BME280;56781;42.292;23.146;2023-02-17T06:46:37;96663.31;;;-1.03;85.55
69570;BME280;56781;42.292;23.146;2023-02-17T06:49:04;96709.28;;;-0.72;85.11
69570;BME280;56781;42.292;23.146;2023-02-17T06:51:32;96693.50;;;0.34;81.04
69570;BME280;56781;42.292;23.146;2023-02-17T06:53:59;96676.63;;;1.07;76.46
69570;BME280;56781;42.292;23.146;2023-02-17T06:56:26;96681.09;;;1.38;75.49
69570;BME280;56781;42.292;23.146;2023-02-17T06:58:53;96712.69;;;1.51;74.42
69570;BME280;56781;42.292;23.146;2023-02-17T07:01:23;96685.50;;;1.51;74.39
69570;BME280;56781;42.292;23.146;2023-02-17T07:03:52;96691.00;;;1.11;76.16
69570;BME280;56781;42.292;23.146;2023-02-17T07:06:20;96675.78;;;1.45;74.58
69570;BME280;56781;42.292;23.146;2023-02-17T07:08:49;96701.38;;;2.01;73.24
69570;BME280;56781;42.292;23.146;2023-02-17T07:11:16;96673.56;;;2.17;72.11
69570;BME280;56781;42.292;23.146;2023-02-17T07:13:44;96672.22;;;2.88;69.91
69570;BME280;56781;42.292;23.146;2023-02-17T07:16:13;96676.81;;;3.41;67.27
69570;BME280;56781;42.292;23.146;2023-02-17T07:18:40;96684.41;;;3.91;65.86
69570;BME280;56781;42.292;23.146;2023-02-17T07:21:08;96665.88;;;3.91;65.60
69570;BME280;56781;42.292;23.146;2023-02-17T07:23:35;96661.13;;;3.70;64.82
69570;BME280;56781;42.292;23.146;2023-02-17T07:26:05;96687.72;;;4.81;63.45
69570;BME280;56781;42.292;23.146;2023-02-17T07:28:34;96690.59;;;5.94;59.92
69570;BME280;56781;42.292;23.146;2023-02-17T07:31:10;96664.22;;;5.13;60.67
69570;BME280;56781;42.292;23.146;2023-02-17T07:33:38;96659.03;;;5.06;63.04
69570;BME280;56781;42.292;23.146;2023-02-17T07:36:11;96679.81;;;5.84;61.15
69570;BME280;56781;42.292;23.146;2023-02-17T07:38:39;96664.78;;;5.61;61.45
69570;BME280;56781;42.292;23.146;2023-02-17T07:41:11;96664.97;;;5.54;61.09
69570;BME280;56781;42.292;23.146;2023-02-17T07:43:39;96650.19;;;5.92;59.75
69570;BME280;56781;42.292;23.146;2023-02-17T07:46:07;96661.03;;;5.73;61.99
69570;BME280;56781;42.292;23.146;2023-02-17T07:48:35;96671.31;;;6.54;59.10
69570;BME280;56781;42.292;23.146;2023-02-17T07:51:07;96657.44;;;7.18;57.56
69570;BME280;56781;42.292;23.146;2023-02-17T07:53:35;96668.88;;;7.41;57.66
69570;BME280;56781;42.292;23.146;2023-02-17T07:56:04;96661.88;;;7.35;58.01
69570;BME280;56781;42.292;23.146;2023-02-17T07:58:34;96674.34;;;7.29;58.55
69570;BME280;56781;42.292;23.146;2023-02-17T08:01:11;96682.94;;;7.90;55.91
69570;BME280;56781;42.292;23.146;2023-02-17T08:03:38;96616.56;;;8.31;52.79
69570;BME280;56781;42.292;23.146;2023-02-17T08:06:10;96658.09;;;8.22;55.00
69570;BME280;56781;42.292;23.146;2023-02-17T08:08:37;96648.53;;;8.26;53.88
69570;BME280;56781;42.292;23.146;2023-02-17T08:11:23;96658.97;;;9.43;51.66
69570;BME280;56781;42.292;23.146;2023-02-17T08:14:11;96674.53;;;9.87;50.43
69570;BME280;56781;42.292;23.146;2023-02-17T08:16:38;96658.09;;;9.22;50.97
69570;BME280;56781;42.292;23.146;2023-02-17T08:19:06;96676.25;;;9.15;52.19
69570;BME280;56781;42.292;23.146;2023-02-17T08:21:33;96652.94;;;8.95;52.98
69570;BME280;56781;42.292;23.146;2023-02-17T08:24:00;96641.50;;;9.10;52.07
69570;BME280;56781;42.292;23.146;2023-02-17T08:26:27;96648.31;;;9.74;49.56
69570;BME280;56781;42.292;23.146;2023-02-17T08:28:55;96636.84;;;9.94;49.84
69570;BME280;56781;42.292;23.146;2023-02-17T08:31:28;96634.66;;;9.65;50.45
69570;BME280;56781;42.292;23.146;2023-02-17T08:33:56;96625.75;;;10.72;47.72
69570;BME280;56781;42.292;23.146;2023-02-17T08:36:24;96625.66;;;10.93;46.37
69570;BME280;56781;42.292;23.146;2023-02-17T08:38:51;96609.81;;;10.01;47.37
69570;BME280;56781;42.292;23.146;2023-02-17T08:41:32;96625.00;;;9.39;50.79
69570;BME280;56781;42.292;23.146;2023-02-17T08:44:02;96636.19;;;9.15;51.94
69570;BME280;56781;42.292;23.146;2023-02-17T08:46:29;96618.41;;;8.78;52.72
69570;BME280;56781;42.292;23.146;2023-02-17T08:48:56;96621.03;;;7.24;57.11
69570;BME280;56781;42.292;23.146;2023-02-17T08:51:24;96644.72;;;7.47;57.75
69570;BME280;56781;42.292;23.146;2023-02-17T08:53:56;96638.75;;;7.67;57.83
69570;BME280;56781;42.292;23.146;2023-02-17T08:56:25;96619.59;;;7.70;57.89
69570;BME280;56781;42.292;23.146;2023-02-17T08:58:52;96605.34;;;7.00;59.13
69570;BME280;56781;42.292;23.146;2023-02-17T09:01:20;96633.59;;;7.28;60.47
69570;BME280;56781;42.292;23.146;2023-02-17T09:03:49;96631.97;;;7.00;61.04
69570;BME280;56781;42.292;23.146;2023-02-17T09:06:18;96641.94;;;6.88;61.85
69570;BME280;56781;42.292;23.146;2023-02-17T09:08:45;96633.53;;;7.23;60.36
69570;BME280;56781;42.292;23.146;2023-02-17T09:11:14;96629.56;;;7.26;60.98
69570;BME280;56781;42.292;23.146;2023-02-17T09:13:43;96621.44;;;7.70;58.33
69570;BME280;56781;42.292;23.146;2023-02-17T09:16:10;96615.59;;;7.73;57.81
69570;BME280;56781;42.292;23.146;2023-02-17T09:18:37;96620.13;;;8.05;57.24
69570;BME280;56781;42.292;23.146;2023-02-17T09:21:10;96597.00;;;7.78;57.12
69570;BME280;56781;42.292;23.146;2023-02-17T09:23:39;96591.94;;;8.19;57.31
69570;BME280;56781;42.292;23.146;2023-02-17T09:26:08;96593.22;;;8.06;55.66
69570;BME280;56781;42.292;23.146;2023-02-17T09:28:36;96593.34;;;7.89;56.61
69570;BME280;56781;42.292;23.146;2023-02-17T09:31:10;96583.97;;;8.24;56.43
69570;BME280;56781;42.292;23.146;2023-02-17T09:33:41;96577.97;;;8.49;54.91
69570;BME280;56781;42.292;23.146;2023-02-17T09:36:11;96589.88;;;8.31;55.96
69570;BME280;56781;42.292;23.146;2023-02-17T09:38:39;96597.13;;;8.94;56.62
69570;BME280;56781;42.292;23.146;2023-02-17T09:41:20;96588.00;;;8.84;53.33
69570;BME280;56781;42.292;23.146;2023-02-17T09:43:49;96564.03;;;9.00;54.15
69570;BME280;56781;42.292;23.146;2023-02-17T09:46:42;96578.47;;;9.19;53.76
69570;BME280;56781;42.292;23.146;2023-02-17T09:49:31;96574.25;;;9.44;52.90
69570;BME280;56781;42.292;23.146;2023-02-17T09:57:50;96546.44;;;9.70;50.03
69570;BME280;56781;42.292;23.146;2023-02-17T10:00:31;96583.59;;;9.87;49.46
69570;BME280;56781;42.292;23.146;2023-02-17T10:03:14;96547.53;;;9.59;50.27
69570;BME280;56781;42.292;23.146;2023-02-17T10:06:08;96580.13;;;9.92;49.32
69570;BME280;56781;42.292;23.146;2023-02-17T10:12:01;96543.63;;;10.42;50.31
69570;BME280;56781;42.292;23.146;2023-02-17T10:16:44;96529.63;;;10.71;45.62
69570;BME280;56781;42.292;23.146;2023-02-17T10:19:24;96518.47;;;10.53;46.50
69570;BME280;56781;42.292;23.146;2023-02-17T10:22:01;96524.09;;;10.96;46.07
69570;BME280;56781;42.292;23.146;2023-02-17T10:24:30;96537.94;;;11.19;45.54
69570;BME280;56781;42.292;23.146;2023-02-17T10:32:42;96497.78;;;11.08;41.31
69570;BME280;56781;42.292;23.146;2023-02-17T10:35:15;96510.56;;;11.22;43.99
69570;BME280;56781;42.292;23.146;2023-02-17T10:40:25;96487.69;;;11.64;41.33
69570;BME280;56781;42.292;23.146;2023-02-17T10:42:59;96493.88;;;11.93;40.83
69570;BME280;56781;42.292;23.146;2023-02-17T10:45:40;96512.50;;;12.33;42.45
69570;BME280;56781;42.292;23.146;2023-02-17T10:48:15;96473.50;;;12.40;40.75
69570;BME280;56781;42.292;23.146;2023-02-17T10:50:44;96471.13;;;12.58;38.75
69570;BME280;56781;42.292;23.146;2023-02-17T10:53:15;96489.28;;;12.85;40.00
69570;BME280;56781;42.292;23.146;2023-02-17T10:55:52;96476.06;;;12.89;37.35
69570;BME280;56781;42.292;23.146;2023-02-17T10:58:32;96478.38;;;13.14;36.39
69570;BME280;56781;42.292;23.146;2023-02-17T11:01:02;96487.31;;;13.09;38.57
69570;BME280;56781;42.292;23.146;2023-02-17T11:03:33;96447.59;;;13.06;38.11
69570;BME280;56781;42.292;23.146;2023-02-17T11:06:02;96443.38;;;13.19;38.38
69570;BME280;56781;42.292;23.146;2023-02-17T11:08:38;96458.22;;;13.49;35.33
69570;BME280;56781;42.292;23.146;2023-02-17T11:11:14;96448.88;;;13.61;35.97
69570;BME280;56781;42.292;23.146;2023-02-17T11:16:37;96440.72;;;13.66;34.60
69570;BME280;56781;42.292;23.146;2023-02-17T11:19:06;96438.94;;;13.89;34.16
69570;BME280;56781;42.292;23.146;2023-02-17T11:21:45;96414.44;;;14.04;33.94
69570;BME280;56781;42.292;23.146;2023-02-17T11:24:12;96441.75;;;14.25;32.26
69570;BME280;56781;42.292;23.146;2023-02-17T11:26:39;96431.66;;;14.31;32.74
69570;BME280;56781;42.292;23.146;2023-02-17T11:29:13;96417.06;;;14.59;31.95
69570;BME280;56781;42.292;23.146;2023-02-17T11:31:41;96433.66;;;14.89;30.27
69570;BME280;56781;42.292;23.146;2023-02-17T11:34:14;96401.84;;;14.77;32.19
69570;BME280;56781;42.292;23.146;2023-02-17T11:36:43;96417.13;;;14.82;29.29
69570;BME280;56781;42.292;23.146;2023-02-17T11:39:21;96426.56;;;15.16;29.34
69570;BME280;56781;42.292;23.146;2023-02-17T11:41:48;96420.91;;;14.81;29.42
69570;BME280;56781;42.292;23.146;2023-02-17T11:44:26;96391.19;;;14.95;30.23
69570;BME280;56781;42.292;23.146;2023-02-17T11:56:16;96381.38;;;15.21;29.96
69570;BME280;56781;42.292;23.146;2023-02-17T12:07:41;96363.50;;;15.25;28.89
69570;BME280;56781;42.292;23.146;2023-02-17T12:10:18;96354.03;;;15.14;29.56
69570;BME280;56781;42.292;23.146;2023-02-17T12:18:34;96363.38;;;14.49;29.99
69570;BME280;56781;42.292;23.146;2023-02-17T12:21:13;96336.34;;;14.99;29.11
69570;BME280;56781;42.292;23.146;2023-02-17T12:24:21;96362.06;;;15.28;29.08
69570;BME280;56781;42.292;23.146;2023-02-17T12:27:05;96347.84;;;15.14;29.72
69570;BME280;56781;42.292;23.146;2023-02-17T12:32:33;96334.84;;;15.47;28.43
69570;BME280;56781;42.292;23.146;2023-02-17T12:37:49;96354.59;;;15.25;28.44
69570;BME280;56781;42.292;23.146;2023-02-17T12:40:49;96355.44;;;15.34;29.17
69570;BME280;56781;42.292;23.146;2023-02-17T12:43:29;96328.53;;;14.67;29.00
69570;BME280;56781;42.292;23.146;2023-02-17T12:46:03;96320.47;;;14.98;28.41
69570;BME280;56781;42.292;23.146;2023-02-17T12:48:53;96347.59;;;15.24;28.17
69570;BME280;56781;42.292;23.146;2023-02-17T12:51:26;96347.53;;;15.38;29.14
69570;BME280;56781;42.292;23.146;2023-02-17T12:54:03;96316.00;;;15.16;28.50
69570;BME280;56781;42.292;23.146;2023-02-17T12:56:47;96325.13;;;15.06;29.66
69570;BME280;56781;42.292;23.146;2023-02-17T12:59:21;96317.31;;;14.73;28.82
69570;BME280;56781;42.292;23.146;2023-02-17T13:01:56;96326.16;;;15.19;28.71
69570;BME280;56781;42.292;23.146;2023-02-17T13:04:28;96313.78;;;14.95;28.80
69570;BME280;56781;42.292;23.146;2023-02-17T13:09:49;96327.59;;;15.25;29.12
69570;BME280;56781;42.292;23.146;2023-02-17T13:14:51;96305.31;;;15.11;28.79
69570;BME280;56781;42.292;23.146;2023-02-17T13:17:30;96300.31;;;15.18;29.02
69570;BME280;56781;42.292;23.146;2023-02-17T13:22:38;96304.97;;;15.03;29.34
69570;BME280;56781;42.292;23.146;2023-02-17T13:25:06;96303.91;;;14.82;28.72
69570;BME280;56781;42.292;23.146;2023-02-17T13:27:38;96291.03;;;14.79;28.72
69570;BME280;56781;42.292;23.146;2023-02-17T13:33:02;96319.06;;;15.00;29.44
69570;BME280;56781;42.292;23.146;2023-02-17T13:35:35;96295.09;;;14.90;29.61
69570;BME280;56781;42.292;23.146;2023-02-17T13:38:03;96271.91;;;14.89;28.90
69570;BME280;56781;42.292;23.146;2023-02-17T13:40:41;96277.66;;;14.96;29.69
69570;BME280;56781;42.292;23.146;2023-02-17T13:43:14;96266.31;;;15.17;30.16
69570;BME280;56781;42.292;23.146;2023-02-17T13:48:27;96278.16;;;14.76;29.39
69570;BME280;56781;42.292;23.146;2023-02-17T13:51:04;96285.78;;;14.74;30.56
69570;BME280;56781;42.292;23.146;2023-02-17T13:53:38;96285.78;;;14.74;30.03
69570;BME280;56781;42.292;23.146;2023-02-17T13:56:09;96281.34;;;14.78;30.23
69570;BME280;56781;42.292;23.146;2023-02-17T13:58:38;96311.31;;;14.54;30.09
69570;BME280;56781;42.292;23.146;2023-02-17T14:01:12;96285.84;;;14.46;30.44
69570;BME280;56781;42.292;23.146;2023-02-17T14:03:45;96271.25;;;14.61;29.63
69570;BME280;56781;42.292;23.146;2023-02-17T14:06:28;96283.69;;;14.71;29.48
69570;BME280;56781;42.292;23.146;2023-02-17T14:08:56;96281.66;;;14.54;30.12
69570;BME280;56781;42.292;23.146;2023-02-17T14:11:27;96272.88;;;14.26;30.45
69570;BME280;56781;42.292;23.146;2023-02-17T14:13:58;96270.50;;;14.10;30.40
69570;BME280;56781;42.292;23.146;2023-02-17T14:16:37;96288.06;;;14.08;30.60
69570;BME280;56781;42.292;23.146;2023-02-17T14:19:10;96272.06;;;13.89;31.61
69570;BME280;56781;42.292;23.146;2023-02-17T14:21:58;96301.47;;;13.99;31.51
69570;BME280;56781;42.292;23.146;2023-02-17T14:24:30;96282.81;;;13.89;31.93
69570;BME280;56781;42.292;23.146;2023-02-17T14:27:02;96282.06;;;13.74;32.15
69570;BME280;56781;42.292;23.146;2023-02-17T14:29:43;96307.97;;;13.84;32.13
69570;BME280;56781;42.292;23.146;2023-02-17T14:32:32;96303.16;;;13.95;31.45
69570;BME280;56781;42.292;23.146;2023-02-17T14:37:40;96291.81;;;13.57;32.98
69570;BME280;56781;42.292;23.146;2023-02-17T14:40:23;96297.59;;;13.78;31.30
69570;BME280;56781;42.292;23.146;2023-02-17T14:42:51;96310.16;;;13.82;32.00